createdAt,value
2018-11-27T00:00:33.873Z,33.70
2018-11-27T00:01:33.810Z,35.80
2018-11-27T00:02:33.809Z,34.70
2018-11-27T00:03:33.812Z,33.20
2018-11-27T00:04:33.794Z,32.70
2018-11-27T00:05:33.762Z,33.70
2018-11-27T00:06:33.750Z,32.80
2018-11-27T00:07:33.679Z,35.00
2018-11-27T00:08:33.712Z,34.80
2018-11-27T00:09:33.639Z,33.20
2018-11-27T00:10:33.613Z,33.90
2018-11-27T00:11:33.593Z,35.40
2018-11-27T00:12:33.569Z,33.60
2018-11-27T00:13:33.549Z,35.60
2018-11-27T00:14:33.537Z,35.30
2018-11-27T00:15:33.508Z,34.90
2018-11-27T00:16:33.485Z,35.50
2018-11-27T00:17:33.466Z,35.60
2018-11-27T00:18:33.444Z,34.90
2018-11-27T00:19:33.423Z,34.30
2018-11-27T00:20:33.400Z,33.00
2018-11-27T00:21:33.376Z,34.90
2018-11-27T00:22:33.354Z,35.00
2018-11-27T00:23:33.338Z,34.70
2018-11-27T00:24:33.310Z,34.30
2018-11-27T00:25:33.290Z,35.50
2018-11-27T00:26:33.270Z,35.10
2018-11-27T00:27:33.248Z,36.10
2018-11-27T00:28:33.224Z,35.50
2018-11-27T00:29:33.205Z,36.50
2018-11-27T00:30:33.181Z,36.70
2018-11-27T00:31:33.168Z,38.60
2018-11-27T00:32:33.138Z,36.10
2018-11-27T00:33:33.117Z,35.90
2018-11-27T00:34:33.093Z,35.90
2018-11-27T00:35:33.073Z,36.20
2018-11-27T00:36:33.079Z,36.40
2018-11-27T00:37:33.026Z,38.40
2018-11-27T00:38:33.005Z,41.00
2018-11-27T00:39:32.988Z,37.70
2018-11-27T00:40:32.964Z,38.00
2018-11-27T00:41:32.939Z,38.50
2018-11-27T00:42:32.919Z,38.30
2018-11-27T00:43:32.902Z,38.40
2018-11-27T00:44:32.874Z,36.40
2018-11-27T00:45:32.853Z,37.70
2018-11-27T00:46:32.837Z,39.10
2018-11-27T00:47:32.811Z,35.40
2018-11-27T00:48:32.788Z,35.50
2018-11-27T00:49:32.766Z,35.70
2018-11-27T00:50:32.745Z,37.30
2018-11-27T00:51:32.725Z,36.70
2018-11-27T00:52:32.701Z,37.20
2018-11-27T00:53:32.677Z,34.20
2018-11-27T00:54:32.657Z,36.20
2018-11-27T00:55:32.639Z,34.60
2018-11-27T00:56:32.620Z,35.10
2018-11-27T00:57:32.593Z,34.70
2018-11-27T00:58:32.588Z,35.30
2018-11-27T00:59:32.550Z,36.60
2018-11-27T01:00:32.533Z,34.90
2018-11-27T01:01:32.504Z,35.00
2018-11-27T01:02:32.483Z,35.50
2018-11-27T01:03:32.463Z,35.30
2018-11-27T01:04:32.443Z,34.70
2018-11-27T01:05:32.420Z,34.50
2018-11-27T01:06:32.394Z,33.60
2018-11-27T01:07:32.378Z,35.30
2018-11-27T01:08:32.354Z,34.70
2018-11-27T01:09:32.331Z,35.90
2018-11-27T01:10:32.310Z,33.90
2018-11-27T01:11:32.287Z,33.80
2018-11-27T01:12:32.266Z,33.10
2018-11-27T01:13:32.244Z,35.10
2018-11-27T01:14:32.222Z,35.40
2018-11-27T01:15:32.202Z,35.00
2018-11-27T01:16:32.181Z,34.10
2018-11-27T01:17:32.157Z,34.20
2018-11-27T01:18:32.139Z,33.80
2018-11-27T01:19:32.113Z,32.90
2018-11-27T01:20:32.091Z,34.00
2018-11-27T01:21:32.069Z,33.90
2018-11-27T01:22:32.049Z,34.50
2018-11-27T01:23:32.026Z,35.30
2018-11-27T01:24:32.006Z,33.60
2018-11-27T01:25:31.985Z,34.00
2018-11-27T01:26:31.966Z,33.40
2018-11-27T01:27:31.959Z,33.90
2018-11-27T01:28:31.923Z,34.00
2018-11-27T01:29:31.907Z,33.80
2018-11-27T01:30:31.874Z,33.70
2018-11-27T01:31:31.864Z,32.70
2018-11-27T01:32:31.835Z,34.20
2018-11-27T01:33:31.812Z,33.30
2018-11-27T01:34:31.788Z,33.40
2018-11-27T01:35:31.769Z,32.10
2018-11-27T01:36:31.745Z,32.50
2018-11-27T01:37:31.733Z,33.00
2018-11-27T01:38:31.700Z,33.70
2018-11-27T01:39:31.685Z,32.40
2018-11-27T01:40:31.659Z,33.20
2018-11-27T01:41:31.642Z,33.60
2018-11-27T01:42:31.614Z,33.40
2018-11-27T01:43:31.592Z,32.30
2018-11-27T01:44:31.571Z,32.30
2018-11-27T01:45:31.563Z,32.50
2018-11-27T01:46:31.533Z,32.40
2018-11-27T01:47:31.506Z,31.80
2018-11-27T01:48:31.486Z,31.80
2018-11-27T01:49:31.467Z,32.70
2018-11-27T01:50:31.450Z,32.40
2018-11-27T01:51:31.418Z,33.50
2018-11-27T01:52:31.397Z,32.50
2018-11-27T01:53:31.381Z,31.90
2018-11-27T01:54:31.356Z,31.80
2018-11-27T01:55:31.333Z,32.00
2018-11-27T01:56:31.315Z,31.90
2018-11-27T01:57:31.289Z,31.30
2018-11-27T01:58:31.271Z,31.90
2018-11-27T01:59:31.249Z,31.70
2018-11-27T02:00:31.229Z,32.50
2018-11-27T02:01:31.202Z,33.00
2018-11-27T02:02:31.180Z,32.30
2018-11-27T02:03:31.159Z,32.70
2018-11-27T02:04:31.139Z,31.30
2018-11-27T02:05:31.119Z,30.80
2018-11-27T02:06:31.137Z,31.40
2018-11-27T02:07:31.076Z,31.00
2018-11-27T02:08:31.053Z,31.50
2018-11-27T02:09:31.032Z,31.70
2018-11-27T02:10:31.011Z,30.10
2018-11-27T02:11:30.988Z,30.70
2018-11-27T02:12:30.966Z,30.50
2018-11-27T02:13:30.943Z,31.90
2018-11-27T02:14:30.923Z,30.40
2018-11-27T02:15:30.910Z,30.60
2018-11-27T02:16:30.882Z,29.60
2018-11-27T02:17:30.866Z,29.80
2018-11-27T02:18:30.840Z,31.80
2018-11-27T02:19:30.817Z,29.40
2018-11-27T02:20:30.798Z,30.00
2018-11-27T02:21:30.776Z,31.30
2018-11-27T02:22:30.750Z,31.70
2018-11-27T02:23:30.725Z,30.50
2018-11-27T02:24:30.705Z,29.40
2018-11-27T02:25:30.687Z,31.20
2018-11-27T02:26:30.661Z,29.10
2018-11-27T02:27:30.642Z,30.70
2018-11-27T02:28:30.622Z,28.90
2018-11-27T02:29:30.596Z,31.00
2018-11-27T02:30:30.575Z,30.80
2018-11-27T02:31:30.555Z,29.80
2018-11-27T02:32:30.533Z,30.10
2018-11-27T02:33:30.510Z,29.80
2018-11-27T02:34:30.490Z,31.20
2018-11-27T02:35:30.471Z,31.10
2018-11-27T02:36:30.449Z,30.50
2018-11-27T02:37:30.424Z,29.80
2018-11-27T02:38:30.403Z,29.70
2018-11-27T02:39:30.382Z,28.40
2018-11-27T02:40:30.360Z,30.40
2018-11-27T02:41:30.336Z,29.90
2018-11-27T02:42:30.318Z,31.70
2018-11-27T02:43:30.296Z,30.20
2018-11-27T02:44:30.271Z,30.10
2018-11-27T02:45:30.248Z,29.20
2018-11-27T02:46:30.231Z,29.10
2018-11-27T02:47:30.204Z,29.90
2018-11-27T02:48:30.185Z,29.50
2018-11-27T02:49:30.163Z,28.90
2018-11-27T02:50:30.141Z,28.70
2018-11-27T02:51:30.120Z,29.70
2018-11-27T02:52:30.103Z,29.30
2018-11-27T02:53:30.078Z,28.40
2018-11-27T02:54:30.057Z,28.00
2018-11-27T02:55:30.032Z,29.40
2018-11-27T02:56:30.014Z,27.80
2018-11-27T02:57:29.988Z,29.20
2018-11-27T02:58:29.968Z,29.50
2018-11-27T02:59:29.951Z,28.90
2018-11-27T03:00:29.924Z,28.70
2018-11-27T03:01:29.904Z,29.70
2018-11-27T03:02:29.881Z,29.30
2018-11-27T03:03:29.859Z,27.60
2018-11-27T03:04:29.840Z,28.70
2018-11-27T03:05:29.814Z,28.30
2018-11-27T03:06:29.807Z,29.20
2018-11-27T03:07:29.772Z,29.10
2018-11-27T03:08:29.751Z,29.70
2018-11-27T03:09:29.729Z,28.60
2018-11-27T03:10:29.712Z,27.80
2018-11-27T03:11:29.689Z,28.20
2018-11-27T03:12:29.665Z,29.20
2018-11-27T03:13:29.644Z,28.30
2018-11-27T03:14:29.618Z,28.80
2018-11-27T03:15:29.600Z,28.50
2018-11-27T03:16:29.578Z,28.30
2018-11-27T03:17:29.553Z,27.80
2018-11-27T03:18:29.535Z,29.10
2018-11-27T03:19:29.516Z,28.10
2018-11-27T03:20:29.492Z,28.30
2018-11-27T03:21:29.468Z,27.80
2018-11-27T03:22:29.451Z,28.00
2018-11-27T03:23:29.426Z,29.00
2018-11-27T03:24:29.413Z,28.10
2018-11-27T03:25:29.379Z,28.50
2018-11-27T03:26:29.361Z,28.70
2018-11-27T03:27:29.338Z,28.50
2018-11-27T03:28:29.316Z,27.60
2018-11-27T03:29:29.293Z,28.00
2018-11-27T03:30:29.281Z,28.20
2018-11-27T03:31:29.265Z,29.10
2018-11-27T03:32:29.233Z,30.10
2018-11-27T03:33:29.211Z,28.40
2018-11-27T03:34:29.186Z,29.40
2018-11-27T03:35:29.163Z,28.80
2018-11-27T03:36:29.140Z,27.60
2018-11-27T03:37:29.117Z,28.10
2018-11-27T03:38:29.098Z,28.70
2018-11-27T03:39:29.076Z,28.00
2018-11-27T03:40:29.062Z,28.20
2018-11-27T03:41:29.035Z,28.20
2018-11-27T03:42:29.014Z,26.30
2018-11-27T03:43:28.993Z,28.40
2018-11-27T03:44:28.967Z,28.00
2018-11-27T03:45:28.944Z,28.10
2018-11-27T03:46:28.921Z,26.60
2018-11-27T03:47:28.903Z,26.70
2018-11-27T03:48:28.888Z,27.50
2018-11-27T03:49:28.859Z,27.20
2018-11-27T03:50:28.835Z,26.30
2018-11-27T03:51:28.818Z,27.80
2018-11-27T03:52:28.792Z,27.20
2018-11-27T03:53:28.769Z,27.20
2018-11-27T03:54:28.749Z,28.30
2018-11-27T03:55:28.736Z,28.30
2018-11-27T03:56:28.708Z,27.50
2018-11-27T03:57:28.687Z,26.90
2018-11-27T03:58:28.662Z,27.50
2018-11-27T03:59:28.661Z,29.00
2018-11-27T04:00:28.623Z,27.60
2018-11-27T04:01:28.598Z,27.30
2018-11-27T04:02:28.576Z,28.10
2018-11-27T04:03:28.562Z,27.40
2018-11-27T04:04:28.537Z,28.10
2018-11-27T04:05:28.512Z,27.00
2018-11-27T04:06:28.491Z,27.50
2018-11-27T04:07:28.472Z,27.00
2018-11-27T04:08:28.446Z,27.50
2018-11-27T04:09:28.432Z,27.40
2018-11-27T04:10:28.408Z,26.80
2018-11-27T04:11:28.396Z,26.90
2018-11-27T04:12:28.358Z,27.00
2018-11-27T04:13:28.340Z,27.90
2018-11-27T04:14:28.318Z,27.00
2018-11-27T04:15:28.297Z,28.10
2018-11-27T04:16:28.284Z,25.40
2018-11-27T04:17:28.250Z,25.90
2018-11-27T04:18:28.229Z,27.40
2018-11-27T04:19:28.205Z,27.40
2018-11-27T04:20:28.194Z,26.50
2018-11-27T04:21:28.164Z,28.70
2018-11-27T04:22:28.140Z,27.20
2018-11-27T04:23:28.134Z,27.10
2018-11-27T04:24:28.100Z,27.80
2018-11-27T04:25:28.080Z,27.40
2018-11-27T04:26:28.056Z,27.20
2018-11-27T04:27:28.037Z,27.50
2018-11-27T04:28:28.015Z,27.30
2018-11-27T04:29:27.997Z,27.90
2018-11-27T04:30:27.971Z,27.30
2018-11-27T04:31:27.948Z,27.60
2018-11-27T04:32:27.935Z,26.60
2018-11-27T04:33:27.904Z,26.90
2018-11-27T04:34:27.882Z,27.90
2018-11-27T04:35:27.878Z,27.80
2018-11-27T04:36:27.844Z,27.90
2018-11-27T04:37:27.815Z,28.80
2018-11-27T04:38:27.794Z,27.60
2018-11-27T04:39:27.775Z,27.20
2018-11-27T04:40:27.753Z,27.50
2018-11-27T04:41:27.729Z,27.10
2018-11-27T04:42:27.714Z,27.80
2018-11-27T04:43:27.687Z,26.90
2018-11-27T04:44:27.667Z,27.10
2018-11-27T04:45:27.655Z,26.50
2018-11-27T04:46:28.537Z,27.00
2018-11-27T04:47:27.601Z,27.30
2018-11-27T04:48:27.580Z,27.80
2018-11-27T04:49:27.563Z,26.90
2018-11-27T04:50:27.539Z,27.50
2018-11-27T04:51:27.515Z,27.10
2018-11-27T04:52:27.495Z,28.20
2018-11-27T04:53:27.473Z,28.00
2018-11-27T04:54:27.449Z,27.10
2018-11-27T04:55:27.429Z,27.80
2018-11-27T04:56:27.409Z,28.50
2018-11-27T04:57:27.385Z,27.00
2018-11-27T04:58:27.368Z,27.70
2018-11-27T04:59:27.347Z,27.80
2018-11-27T05:00:27.322Z,28.60
2018-11-27T05:01:27.298Z,28.30
2018-11-27T05:02:27.278Z,27.90
2018-11-27T05:03:27.256Z,28.20
2018-11-27T05:04:27.237Z,26.80
2018-11-27T05:05:27.213Z,28.50
2018-11-27T05:06:27.191Z,27.00
2018-11-27T05:07:27.170Z,27.70
2018-11-27T05:08:27.147Z,27.30
2018-11-27T05:09:27.128Z,27.10
2018-11-27T05:10:27.105Z,27.20
2018-11-27T05:11:27.083Z,27.70
2018-11-27T05:12:27.066Z,27.20
2018-11-27T05:13:27.039Z,27.40
2018-11-27T05:14:27.020Z,27.10
2018-11-27T05:15:26.996Z,27.70
2018-11-27T05:16:26.974Z,26.80
2018-11-27T05:17:26.951Z,37.30
2018-11-27T05:18:26.929Z,27.90
2018-11-27T05:19:26.909Z,28.70
2018-11-27T05:20:26.885Z,32.60
2018-11-27T05:21:26.862Z,36.60
2018-11-27T05:22:26.849Z,28.70
2018-11-27T05:23:26.824Z,28.50
2018-11-27T05:24:26.800Z,27.20
2018-11-27T05:25:26.839Z,28.90
2018-11-27T05:26:26.757Z,27.40
2018-11-27T05:27:26.737Z,27.70
2018-11-27T05:28:26.712Z,29.30
2018-11-27T05:29:26.689Z,28.60
2018-11-27T05:30:26.686Z,26.80
2018-11-27T05:31:26.652Z,26.70
2018-11-27T05:32:26.625Z,25.70
2018-11-27T05:33:26.603Z,26.70
2018-11-27T05:34:26.585Z,27.80
2018-11-27T05:35:26.561Z,26.80
2018-11-27T05:36:26.544Z,27.30
2018-11-27T05:37:26.517Z,28.20
2018-11-27T05:38:26.504Z,28.10
2018-11-27T05:39:26.476Z,26.90
2018-11-27T05:40:26.455Z,28.60
2018-11-27T05:41:26.441Z,26.80
2018-11-27T05:42:26.409Z,27.80
2018-11-27T05:43:26.389Z,27.80
2018-11-27T05:44:26.372Z,27.90
2018-11-27T05:45:26.344Z,28.00
2018-11-27T05:46:26.326Z,27.20
2018-11-27T05:47:26.306Z,28.50
2018-11-27T05:48:26.282Z,27.50
2018-11-27T05:49:26.260Z,25.60
2018-11-27T05:50:26.240Z,27.00
2018-11-27T05:51:26.217Z,26.60
2018-11-27T05:52:26.196Z,27.90
2018-11-27T05:53:26.174Z,26.40
2018-11-27T05:54:26.164Z,26.70
2018-11-27T05:55:26.143Z,25.60
2018-11-27T05:56:26.112Z,27.10
2018-11-27T05:57:26.091Z,26.80
2018-11-27T05:58:26.069Z,27.40
2018-11-27T05:59:26.048Z,27.20
2018-11-27T06:00:26.026Z,26.60
2018-11-27T06:01:26.001Z,27.90
2018-11-27T06:02:25.983Z,27.00
2018-11-27T06:03:25.958Z,26.80
2018-11-27T06:04:25.937Z,26.10
2018-11-27T06:05:25.914Z,27.80
2018-11-27T06:06:25.892Z,25.50
2018-11-27T06:07:25.869Z,27.20
2018-11-27T06:08:25.851Z,26.50
2018-11-27T06:09:25.829Z,26.30
2018-11-27T06:10:25.804Z,26.90
2018-11-27T06:11:25.782Z,27.00
2018-11-27T06:12:25.763Z,27.00
2018-11-27T06:13:25.741Z,26.40
2018-11-27T06:14:25.721Z,26.10
2018-11-27T06:15:25.699Z,27.20
2018-11-27T06:16:25.685Z,25.90
2018-11-27T06:17:25.659Z,25.40
2018-11-27T06:18:25.649Z,25.10
2018-11-27T06:19:25.613Z,26.50
2018-11-27T06:20:25.597Z,25.60
2018-11-27T06:21:25.569Z,26.70
2018-11-27T06:22:25.547Z,25.20
2018-11-27T06:23:25.532Z,26.10
2018-11-27T06:24:25.518Z,25.40
2018-11-27T06:25:25.485Z,26.90
2018-11-27T06:26:25.461Z,26.70
2018-11-27T06:27:25.438Z,24.50
2018-11-27T06:28:25.421Z,25.60
2018-11-27T06:29:25.394Z,25.50
2018-11-27T06:30:25.385Z,24.40
2018-11-27T06:31:25.353Z,24.70
2018-11-27T06:32:25.332Z,25.70
2018-11-27T06:33:25.308Z,25.80
2018-11-27T06:34:25.286Z,24.50
2018-11-27T06:35:25.264Z,25.00
2018-11-27T06:36:25.244Z,24.10
2018-11-27T06:37:25.224Z,24.20
2018-11-27T06:38:25.205Z,23.90
2018-11-27T06:39:25.179Z,25.10
2018-11-27T06:40:25.157Z,23.10
2018-11-27T06:41:25.138Z,23.80
2018-11-27T06:42:25.117Z,23.60
2018-11-27T06:43:25.093Z,23.70
2018-11-27T06:44:25.073Z,24.80
2018-11-27T06:45:25.050Z,24.20
2018-11-27T06:46:25.027Z,24.50
2018-11-27T06:47:25.008Z,25.00
2018-11-27T06:48:24.986Z,24.30
2018-11-27T06:49:24.970Z,25.50
2018-11-27T06:50:24.942Z,24.50
2018-11-27T06:51:24.925Z,25.10
2018-11-27T06:52:24.906Z,23.80
2018-11-27T06:53:24.878Z,24.70
2018-11-27T06:54:24.855Z,25.90
2018-11-27T06:55:24.834Z,25.00
2018-11-27T06:56:24.820Z,24.60
2018-11-27T06:57:24.791Z,24.00
2018-11-27T06:58:24.771Z,24.40
2018-11-27T06:59:24.747Z,25.40
2018-11-27T07:00:24.725Z,24.50
2018-11-27T07:01:24.702Z,24.30
2018-11-27T07:02:24.697Z,24.80
2018-11-27T07:03:24.664Z,25.20
2018-11-27T07:04:24.647Z,24.60
2018-11-27T07:05:24.621Z,24.60
2018-11-27T07:06:24.600Z,24.10
2018-11-27T07:07:24.573Z,24.10
2018-11-27T07:08:24.554Z,24.80
2018-11-27T07:09:24.530Z,24.30
2018-11-27T07:10:24.509Z,24.50
2018-11-27T07:11:24.487Z,25.20
2018-11-27T07:12:24.474Z,25.60
2018-11-27T07:13:24.447Z,24.30
2018-11-27T07:14:24.428Z,24.00
2018-11-27T07:15:24.406Z,24.50
2018-11-27T07:16:24.382Z,24.70
2018-11-27T07:17:24.362Z,25.20
2018-11-27T07:18:24.337Z,24.40
2018-11-27T07:19:24.316Z,24.80
2018-11-27T07:20:24.301Z,24.60
2018-11-27T07:21:24.271Z,25.60
2018-11-27T07:22:24.247Z,24.90
2018-11-27T07:23:24.227Z,24.60
2018-11-27T07:24:24.207Z,25.60
2018-11-27T07:25:24.184Z,23.80
2018-11-27T07:26:24.162Z,23.90
2018-11-27T07:27:24.147Z,24.70
2018-11-27T07:28:24.124Z,25.70
2018-11-27T07:29:24.099Z,26.10
2018-11-27T07:30:24.081Z,24.90
2018-11-27T07:31:24.056Z,24.70
2018-11-27T07:32:24.034Z,26.20
2018-11-27T07:33:24.024Z,24.90
2018-11-27T07:34:23.990Z,25.80
2018-11-27T07:35:23.969Z,23.90
2018-11-27T07:36:23.951Z,25.30
2018-11-27T07:37:23.930Z,24.10
2018-11-27T07:38:23.906Z,24.90
2018-11-27T07:39:23.894Z,24.60
2018-11-27T07:40:23.865Z,24.60
2018-11-27T07:41:23.848Z,24.90
2018-11-27T07:42:23.822Z,24.90
2018-11-27T07:43:23.798Z,25.40
2018-11-27T07:44:23.777Z,24.50
2018-11-27T07:45:23.758Z,24.30
2018-11-27T07:46:23.734Z,24.10
2018-11-27T07:47:23.715Z,24.90
2018-11-27T07:48:23.691Z,24.70
2018-11-27T07:49:23.667Z,24.60
2018-11-27T07:50:23.649Z,24.60
2018-11-27T07:51:23.622Z,24.80
2018-11-27T07:52:23.603Z,25.20
2018-11-27T07:53:23.584Z,23.40
2018-11-27T07:54:23.576Z,25.70
2018-11-27T07:55:23.541Z,24.40
2018-11-27T07:56:23.517Z,24.30
2018-11-27T07:57:23.495Z,24.40
2018-11-27T07:58:23.472Z,25.80
2018-11-27T07:59:23.452Z,25.20
2018-11-27T08:00:23.432Z,23.90
2018-11-27T08:01:23.407Z,25.20
2018-11-27T08:02:23.387Z,24.50
2018-11-27T08:03:23.368Z,25.20
2018-11-27T08:04:23.344Z,25.30
2018-11-27T08:05:23.321Z,24.70
2018-11-27T08:06:23.307Z,24.60
2018-11-27T08:07:23.284Z,25.50
2018-11-27T08:08:23.259Z,25.30
2018-11-27T08:09:27.081Z,23.70
2018-11-27T08:10:23.215Z,23.60
2018-11-27T08:11:23.198Z,25.60
2018-11-27T08:12:23.173Z,24.80
2018-11-27T08:13:23.153Z,24.60
2018-11-27T08:14:23.128Z,25.40
2018-11-27T08:15:23.108Z,24.40
2018-11-27T08:16:23.088Z,24.90
2018-11-27T08:17:23.063Z,24.10
2018-11-27T08:18:23.041Z,26.00
2018-11-27T08:19:23.024Z,25.20
2018-11-27T08:20:22.999Z,24.20
2018-11-27T08:21:22.977Z,25.60
2018-11-27T08:22:22.957Z,24.90
2018-11-27T08:23:22.935Z,25.70
2018-11-27T08:24:22.921Z,26.90
2018-11-27T08:25:22.891Z,26.40
2018-11-27T08:26:22.869Z,25.60
2018-11-27T08:27:22.850Z,25.00
2018-11-27T08:28:22.828Z,24.50
2018-11-27T08:29:22.805Z,25.60
2018-11-27T08:30:22.786Z,25.40
2018-11-27T08:31:22.776Z,25.20
2018-11-27T08:32:22.743Z,24.70
2018-11-27T08:33:22.726Z,25.10
2018-11-27T08:34:22.700Z,24.90
2018-11-27T08:35:22.683Z,26.60
2018-11-27T08:36:22.659Z,25.30
2018-11-27T08:37:22.638Z,26.20
2018-11-27T08:38:22.613Z,26.30
2018-11-27T08:39:22.595Z,25.20
2018-11-27T08:40:22.577Z,26.20
2018-11-27T08:41:22.553Z,25.20
2018-11-27T08:42:22.535Z,26.10
2018-11-27T08:43:22.511Z,26.40
2018-11-27T08:44:22.488Z,25.60
2018-11-27T08:45:22.471Z,26.10
2018-11-27T08:46:22.443Z,26.30
2018-11-27T08:47:22.421Z,26.40
2018-11-27T08:48:22.402Z,26.00
2018-11-27T08:49:22.377Z,25.00
2018-11-27T08:50:22.358Z,24.20
2018-11-27T08:51:22.333Z,24.80
2018-11-27T08:52:22.315Z,25.00
2018-11-27T08:53:22.289Z,25.50
2018-11-27T08:54:22.269Z,24.30
2018-11-27T08:55:22.250Z,24.50
2018-11-27T08:56:22.230Z,24.40
2018-11-27T08:57:22.204Z,25.90
2018-11-27T08:58:22.183Z,25.10
2018-11-27T08:59:22.165Z,26.10
2018-11-27T09:00:22.143Z,25.40
2018-11-27T09:01:22.134Z,24.40
2018-11-27T09:02:22.097Z,24.70
2018-11-27T09:03:22.088Z,24.60
2018-11-27T09:04:22.068Z,25.20
2018-11-27T09:05:22.039Z,25.10
2018-11-27T09:06:22.014Z,24.30
2018-11-27T09:07:21.991Z,25.40
2018-11-27T09:08:21.971Z,24.80
2018-11-27T09:09:21.950Z,24.10
2018-11-27T09:10:21.924Z,24.20
2018-11-27T09:11:21.906Z,24.00
2018-11-27T09:12:21.882Z,23.90
2018-11-27T09:13:21.865Z,24.90
2018-11-27T09:14:21.839Z,23.80
2018-11-27T09:15:21.834Z,24.80
2018-11-27T09:16:21.800Z,24.00
2018-11-27T09:17:21.775Z,23.40
2018-11-27T09:18:21.757Z,24.80
2018-11-27T09:19:21.734Z,24.30
2018-11-27T09:20:21.713Z,25.50
2018-11-27T09:21:21.702Z,24.20
2018-11-27T09:22:21.672Z,24.50
2018-11-27T09:23:21.648Z,24.70
2018-11-27T09:24:21.672Z,24.20
2018-11-27T09:25:21.607Z,24.20
2018-11-27T09:26:21.586Z,24.70
2018-11-27T09:27:21.561Z,23.50
2018-11-27T09:28:21.541Z,24.40
2018-11-27T09:29:21.520Z,24.40
2018-11-27T09:30:21.499Z,23.70
2018-11-27T09:31:21.484Z,23.80
2018-11-27T09:32:21.468Z,23.50
2018-11-27T09:33:21.442Z,25.00
2018-11-27T09:34:21.416Z,24.00
2018-11-27T09:35:21.392Z,23.70
2018-11-27T09:36:21.371Z,24.90
2018-11-27T09:37:21.356Z,24.20
2018-11-27T09:38:21.326Z,24.00
2018-11-27T09:39:21.307Z,24.20
2018-11-27T09:40:21.284Z,24.70
2018-11-27T09:41:21.373Z,24.30
2018-11-27T09:42:21.244Z,24.20
2018-11-27T09:43:21.243Z,24.00
2018-11-27T09:44:21.275Z,23.60
2018-11-27T09:45:21.185Z,24.00
2018-11-27T09:46:21.157Z,23.90
2018-11-27T09:47:21.139Z,24.40
2018-11-27T09:48:21.112Z,24.50
2018-11-27T09:49:21.089Z,23.30
2018-11-27T09:50:21.068Z,22.70
2018-11-27T09:51:21.047Z,23.60
2018-11-27T09:52:21.026Z,23.50
2018-11-27T09:53:21.003Z,23.90
2018-11-27T09:54:20.986Z,24.10
2018-11-27T09:55:20.965Z,24.50
2018-11-27T09:56:20.940Z,24.00
2018-11-27T09:57:20.921Z,23.60
2018-11-27T09:58:20.898Z,23.90
2018-11-27T09:59:20.877Z,23.20
2018-11-27T10:00:20.856Z,24.30
2018-11-27T10:01:20.832Z,23.70
2018-11-27T10:02:20.814Z,24.40
2018-11-27T10:03:20.796Z,22.40
2018-11-27T10:04:20.773Z,24.40
2018-11-27T10:05:20.756Z,23.40
2018-11-27T10:06:20.726Z,24.50
2018-11-27T10:07:20.706Z,22.60
2018-11-27T10:08:20.683Z,24.00
2018-11-27T10:09:20.665Z,23.50
2018-11-27T10:10:20.643Z,24.10
2018-11-27T10:11:20.617Z,23.00
2018-11-27T10:12:21.684Z,23.80
2018-11-27T10:13:20.575Z,23.90
2018-11-27T10:14:20.556Z,23.30
2018-11-27T10:15:20.536Z,24.30
2018-11-27T10:16:20.513Z,23.30
2018-11-27T10:17:20.490Z,24.00
2018-11-27T10:18:20.468Z,23.60
2018-11-27T10:19:20.453Z,23.00
2018-11-27T10:20:20.430Z,23.10
2018-11-27T10:21:20.404Z,23.60
2018-11-27T10:22:20.383Z,23.30
2018-11-27T10:23:20.382Z,22.20
2018-11-27T10:24:20.341Z,23.00
2018-11-27T10:25:20.322Z,24.00
2018-11-27T10:26:20.311Z,23.00
2018-11-27T10:27:20.277Z,22.50
2018-11-27T10:28:20.260Z,23.60
2018-11-27T10:29:20.246Z,23.00
2018-11-27T10:30:20.224Z,23.50
2018-11-27T10:31:20.191Z,24.40
2018-11-27T10:32:20.169Z,23.00
2018-11-27T10:33:20.151Z,23.60
2018-11-27T10:34:20.132Z,23.30
2018-11-27T10:35:20.106Z,22.80
2018-11-27T10:36:20.082Z,23.50
2018-11-27T10:37:20.061Z,22.50
2018-11-27T10:38:20.042Z,23.70
2018-11-27T10:39:20.032Z,22.80
2018-11-27T10:40:20.002Z,23.10
2018-11-27T10:41:19.987Z,22.50
2018-11-27T10:42:19.952Z,23.50
2018-11-27T10:43:20.209Z,23.60
2018-11-27T10:44:19.911Z,22.80
2018-11-27T10:45:19.889Z,22.90
2018-11-27T10:46:19.870Z,24.00
2018-11-27T10:47:19.847Z,24.10
2018-11-27T10:48:19.826Z,23.40
2018-11-27T10:49:19.810Z,22.10
2018-11-27T10:50:19.781Z,23.40
2018-11-27T10:51:19.758Z,23.50
2018-11-27T10:52:19.739Z,23.50
2018-11-27T10:53:19.717Z,23.50
2018-11-27T10:54:19.699Z,24.00
2018-11-27T10:55:19.679Z,23.60
2018-11-27T10:56:19.658Z,23.80
2018-11-27T10:57:19.636Z,23.00
2018-11-27T10:58:19.615Z,23.50
2018-11-27T10:59:19.587Z,23.60
2018-11-27T11:00:19.565Z,22.50
2018-11-27T11:01:19.546Z,22.40
2018-11-27T11:02:19.525Z,23.60
2018-11-27T11:03:19.504Z,23.40
2018-11-27T11:04:19.481Z,23.30
2018-11-27T11:05:19.458Z,23.70
2018-11-27T11:06:19.446Z,23.50
2018-11-27T11:07:19.415Z,23.20
2018-11-27T11:08:19.397Z,22.40
2018-11-27T11:09:19.372Z,23.80
2018-11-27T11:10:19.351Z,21.80
2018-11-27T11:11:19.335Z,22.10
2018-11-27T11:12:19.309Z,23.90
2018-11-27T11:13:19.286Z,23.60
2018-11-27T11:14:19.266Z,24.00
2018-11-27T11:15:19.252Z,24.10
2018-11-27T11:16:19.223Z,24.50
2018-11-27T11:17:19.202Z,24.50
2018-11-27T11:18:19.186Z,23.70
2018-11-27T11:19:19.160Z,23.60
2018-11-27T11:20:19.144Z,23.40
2018-11-27T11:21:19.114Z,22.60
2018-11-27T11:22:19.096Z,23.00
2018-11-27T11:23:19.072Z,22.80
2018-11-27T11:24:19.053Z,23.70
2018-11-27T11:25:19.027Z,22.60
2018-11-27T11:26:19.013Z,22.90
2018-11-27T11:27:18.988Z,23.10
2018-11-27T11:28:18.967Z,22.50
2018-11-27T11:29:18.946Z,23.00
2018-11-27T11:30:18.926Z,23.20
2018-11-27T11:31:18.905Z,22.90
2018-11-27T11:32:18.887Z,22.40
2018-11-27T11:33:18.863Z,22.70
2018-11-27T11:34:18.835Z,23.00
2018-11-27T11:35:18.825Z,23.50
2018-11-27T11:36:18.796Z,22.00
2018-11-27T11:37:18.770Z,22.70
2018-11-27T11:38:18.755Z,22.80
2018-11-27T11:39:18.729Z,21.80
2018-11-27T11:40:18.706Z,22.00
2018-11-27T11:41:18.689Z,22.60
2018-11-27T11:42:18.664Z,21.80
2018-11-27T11:43:18.645Z,22.20
2018-11-27T11:44:18.626Z,22.40
2018-11-27T11:45:18.600Z,21.70
2018-11-27T11:46:18.578Z,22.60
2018-11-27T11:47:18.556Z,21.50
2018-11-27T11:48:18.540Z,21.80
2018-11-27T11:49:18.514Z,21.60
2018-11-27T11:50:18.495Z,20.50
2018-11-27T11:51:18.478Z,21.30
2018-11-27T11:52:18.452Z,22.40
2018-11-27T11:53:18.430Z,22.10
2018-11-27T11:54:18.413Z,21.50
2018-11-27T11:55:18.388Z,21.60
2018-11-27T11:56:18.374Z,21.30
2018-11-27T11:57:18.357Z,20.90
2018-11-27T11:58:18.331Z,21.20
2018-11-27T11:59:18.304Z,21.10
2018-11-27T12:00:18.282Z,21.00
2018-11-27T12:01:18.257Z,21.80
2018-11-27T12:02:18.240Z,20.30
2018-11-27T12:03:18.223Z,22.20
2018-11-27T12:04:18.196Z,22.10
2018-11-27T12:05:18.176Z,20.40
2018-11-27T12:06:18.158Z,21.10
2018-11-27T12:07:18.133Z,21.20
2018-11-27T12:08:18.110Z,20.30
2018-11-27T12:09:18.091Z,21.10
2018-11-27T12:10:18.069Z,19.40
2018-11-27T12:11:18.046Z,20.90
2018-11-27T12:12:18.031Z,21.10
2018-11-27T12:13:18.003Z,20.70
2018-11-27T12:14:17.985Z,20.90
2018-11-27T12:15:17.969Z,22.20
2018-11-27T12:16:17.941Z,21.40
2018-11-27T12:17:17.924Z,21.30
2018-11-27T12:18:17.898Z,21.50
2018-11-27T12:19:17.905Z,21.20
2018-11-27T12:20:17.856Z,22.60
2018-11-27T12:21:17.839Z,20.40
2018-11-27T12:22:17.813Z,21.50
2018-11-27T12:23:17.795Z,22.10
2018-11-27T12:24:17.770Z,21.90
2018-11-27T12:25:17.748Z,21.80
2018-11-27T12:26:17.736Z,21.30
2018-11-27T12:27:17.706Z,21.70
2018-11-27T12:28:17.689Z,20.60
2018-11-27T12:29:17.662Z,20.20
2018-11-27T12:30:17.662Z,20.80
2018-11-27T12:31:17.620Z,22.30
2018-11-27T12:32:17.600Z,20.70
2018-11-27T12:33:17.578Z,20.80
2018-11-27T12:34:17.559Z,20.00
2018-11-27T12:35:17.536Z,20.70
2018-11-27T12:36:17.518Z,19.70
2018-11-27T12:37:17.496Z,20.40
2018-11-27T12:38:17.476Z,21.70
2018-11-27T12:39:17.454Z,21.20
2018-11-27T12:40:17.436Z,20.50
2018-11-27T12:41:17.412Z,21.20
2018-11-27T12:42:17.385Z,20.00
2018-11-27T12:43:17.368Z,20.60
2018-11-27T12:44:17.351Z,20.70
2018-11-27T12:45:17.329Z,21.30
2018-11-27T12:46:17.303Z,19.90
2018-11-27T12:47:17.571Z,20.60
2018-11-27T12:48:17.255Z,19.70
2018-11-27T12:49:17.239Z,19.00
2018-11-27T12:50:17.217Z,18.90
2018-11-27T12:51:17.639Z,18.30
2018-11-27T12:52:17.169Z,19.30